Time;durP1;ratioP1;P1;durP2;ratioP2;P2;SDS_P1;SDS_P2;PMS_P1;PMS_P2;Temp;Humidity;BMP_temperature;BMP_pressure;BME280_temperature;BME280_humidity;BME280_pressure;Samples;Min_cycle;Max_cycle;Signal;HPM_P1;HPM_P2
2023/01/02 00:01:47;;;;;;;15.93;7.70;;;;;;;13.10;58.10;100665.41;4905345;28;101644;-81
2023/01/02 00:04:12;;;;;;;14.27;6.88;;;;;;;13.09;57.43;100671.63;4925574;28;101282;-82
2023/01/02 00:06:38;;;;;;;11.93;6.70;;;;;;;13.16;57.50;100656.41;4908345;28;97089;-81
2023/01/02 00:09:05;;;;;;;9.20;6.50;;;;;;;13.00;57.68;100650.88;4906915;28;97039;-82
2023/01/02 00:11:31;;;;;;;10.73;7.38;;;;;;;12.96;57.47;100644.88;4908572;28;101517;-82
2023/01/02 00:13:57;;;;;;;13.25;6.15;;;;;;;13.12;57.29;100658.31;4942680;28;97591;-82
2023/01/02 00:16:22;;;;;;;15.90;7.32;;;;;;;13.27;57.07;100659.53;4918048;28;97067;-83
2023/01/02 00:18:48;;;;;;;15.05;6.68;;;;;;;13.22;56.98;100661.44;4933260;28;96872;-81
2023/01/02 00:21:14;;;;;;;10.07;6.90;;;;;;;13.21;56.83;100662.38;4910113;28;101662;-83
2023/01/02 00:23:40;;;;;;;11.93;7.07;;;;;;;13.10;57.46;100657.50;4927127;28;100975;-82
2023/01/02 00:26:05;;;;;;;14.52;7.57;;;;;;;13.10;57.62;100671.53;4910237;28;97151;-80
2023/01/02 00:28:32;;;;;;;9.70;6.57;;;;;;;13.00;57.77;100664.94;4929272;28;97211;-81
2023/01/02 00:31:03;;;;;;;12.10;7.07;;;;;;;12.90;57.90;100653.00;4945381;28;100906;-81
2023/01/02 00:33:29;;;;;;;11.25;7.18;;;;;;;12.84;58.28;100647.97;4883953;28;101794;-80
2023/01/02 00:35:54;;;;;;;9.23;6.57;;;;;;;12.83;58.20;100651.53;4923170;28;96804;-81
2023/01/02 00:38:20;;;;;;;12.45;7.00;;;;;;;12.69;58.33;100628.34;4909743;28;96961;-80
2023/01/02 00:40:45;;;;;;;10.02;6.47;;;;;;;12.89;58.10;100652.16;4914320;28;98060;-80
2023/01/02 00:43:11;;;;;;;9.38;6.18;;;;;;;12.84;58.53;100645.34;4950225;28;97967;-81
2023/01/02 00:45:37;;;;;;;10.70;6.30;;;;;;;12.77;58.80;100644.72;4931612;28;96950;-81
2023/01/02 00:48:02;;;;;;;8.85;6.45;;;;;;;12.73;58.99;100632.56;4928700;28;97215;-81
2023/01/02 00:50:28;;;;;;;11.15;6.85;;;;;;;12.66;58.78;100616.16;4896301;28;100895;-81
2023/01/02 00:52:53;;;;;;;11.35;6.32;;;;;;;12.87;58.66;100638.16;4926175;28;100858;-80
2023/01/02 00:55:19;;;;;;;12.32;7.32;;;;;;;12.85;58.82;100642.63;4928437;28;96762;-81
2023/01/02 00:57:44;;;;;;;12.52;6.40;;;;;;;12.68;58.97;100624.84;4945664;28;97366;-81
2023/01/02 01:00:11;;;;;;;15.60;7.03;;;;;;;12.65;59.12;100634.63;4915781;28;101033;-81
2023/01/02 01:02:36;;;;;;;12.73;6.50;;;;;;;12.70;58.66;100643.22;4945669;28;101699;-81
2023/01/02 01:05:02;;;;;;;8.75;6.45;;;;;;;12.61;59.21;100625.13;4902203;28;96790;-81
2023/01/02 01:07:28;;;;;;;10.30;6.63;;;;;;;12.75;59.23;100628.09;4941964;28;97069;-81
2023/01/02 01:09:54;;;;;;;10.93;5.95;;;;;;;12.84;58.39;100634.81;4932476;28;101143;-80
2023/01/02 01:12:19;;;;;;;10.73;5.95;;;;;;;12.78;58.31;100640.31;4907294;28;101179;-81
2023/01/02 01:14:45;;;;;;;7.63;5.40;;;;;;;12.70;59.32;100640.59;4934243;28;96915;-82
2023/01/02 01:17:12;;;;;;;10.65;6.55;;;;;;;12.49;59.01;100604.53;4933412;28;96877;-81
2023/01/02 01:19:37;;;;;;;9.60;5.72;;;;;;;12.58;59.29;100617.34;4944770;28;101792;-81
2023/01/02 01:22:03;;;;;;;15.70;6.00;;;;;;;12.66;58.93;100623.19;4961351;28;97597;-81
2023/01/02 01:24:28;;;;;;;8.57;5.78;;;;;;;12.53;59.35;100606.97;4940813;28;97681;-81
2023/01/02 01:26:54;;;;;;;8.60;5.97;;;;;;;12.58;59.42;100614.72;4946281;28;97329;-81
2023/01/02 01:29:19;;;;;;;9.15;6.05;;;;;;;12.57;59.24;100613.00;4925396;28;101420;-82
2023/01/02 01:31:45;;;;;;;9.45;5.60;;;;;;;12.59;59.75;100622.53;4933973;28;97463;-81
2023/01/02 01:34:11;;;;;;;8.90;5.60;;;;;;;12.58;59.54;100615.56;4895644;28;97448;-81
2023/01/02 01:36:37;;;;;;;14.65;5.53;;;;;;;12.63;59.37;100611.00;4899439;28;97022;-80
2023/01/02 01:39:02;;;;;;;8.95;6.18;;;;;;;12.67;59.28;100617.00;4939170;28;101812;-82
2023/01/02 01:41:28;;;;;;;7.30;5.43;;;;;;;12.59;59.97;100606.75;4906364;28;100866;-83
2023/01/02 01:43:57;;;;;;;10.30;5.72;;;;;;;12.59;60.10;100611.16;4901636;28;96816;-81
2023/01/02 01:46:31;;;;;;;8.23;5.47;;;;;;;12.61;59.07;100610.19;4896669;28;97280;-80
2023/01/02 01:49:03;;;;;;;9.15;5.65;;;;;;;12.55;60.25;100609.56;4916969;28;102038;-80
2023/01/02 01:51:30;;;;;;;9.00;4.93;;;;;;;12.46;60.08;100574.75;4954750;28;97861;-83
2023/01/02 01:54:05;;;;;;;7.25;5.20;;;;;;;12.74;59.22;100605.34;4916678;28;96887;-83
2023/01/02 01:56:33;;;;;;;7.57;5.38;;;;;;;12.91;59.66;100597.63;4909819;28;97673;-81
2023/01/02 01:58:59;;;;;;;6.82;4.72;;;;;;;12.87;58.75;100584.63;4924664;28;100999;-82
2023/01/02 02:01:25;;;;;;;9.48;5.40;;;;;;;12.95;58.81;100597.50;4932879;28;100954;-82
2023/01/02 02:03:50;;;;;;;9.18;5.72;;;;;;;13.00;58.88;100601.69;4920764;28;97180;-81
2023/01/02 02:06:17;;;;;;;8.60;5.15;;;;;;;13.01;58.65;100603.38;4939142;28;96945;-81
2023/01/02 02:09:00;;;;;;;10.48;5.38;;;;;;;12.99;58.78;100589.41;4928697;28;98142;-81
2023/01/02 02:11:26;;;;;;;10.57;5.40;;;;;;;13.15;58.52;100594.94;4941362;28;101064;-80
2023/01/02 02:13:55;;;;;;;7.68;5.43;;;;;;;13.06;58.89;100593.53;4923705;28;99251;-81
2023/01/02 02:16:36;;;;;;;9.07;5.75;;;;;;;13.10;58.86;100583.72;4931944;28;96755;-81
2023/01/02 02:19:21;;;;;;;9.75;5.72;;;;;;;13.18;58.51;100583.38;4924923;28;101871;-81
2023/01/02 02:21:56;;;;;;;13.05;6.70;;;;;;;13.00;58.88;100569.19;4921688;28;101501;-82
2023/01/02 02:25:00;;;;;;;10.63;6.38;;;;;;;12.97;58.46;100587.75;4920047;28;97950;-81
2023/01/02 02:27:35;;;;;;;9.60;6.10;;;;;;;12.99;59.32;100594.69;4921269;28;97515;-81
2023/01/02 02:30:06;;;;;;;10.98;5.88;;;;;;;12.99;58.63;100578.00;4939456;28;101928;-81
2023/01/02 02:33:06;;;;;;;10.50;6.68;;;;;;;12.99;58.46;100588.56;4918148;28;101210;-82
2023/01/02 02:35:59;;;;;;;12.20;6.82;;;;;;;13.02;58.41;100591.06;4942050;28;96795;-81
2023/01/02 02:38:31;;;;;;;13.07;6.05;;;;;;;13.05;58.66;100588.31;4942794;28;97523;-81
2023/01/02 02:40:56;;;;;;;10.18;6.35;;;;;;;12.98;58.35;100592.13;4943730;28;101821;-81
2023/01/02 02:43:30;;;;;;;10.73;6.28;;;;;;;12.83;58.90;100590.94;4911791;28;101570;-81
2023/01/02 02:46:12;;;;;;;10.20;5.75;;;;;;;12.71;59.21;100583.50;4912384;28;96880;-81
2023/01/02 02:48:48;;;;;;;9.63;5.90;;;;;;;12.62;59.99;100585.59;4947209;28;97574;-81
2023/01/02 02:51:51;;;;;;;9.55;5.85;;;;;;;12.59;59.75;100588.31;4946598;28;101262;-82
2023/01/02 02:54:22;;;;;;;10.05;5.45;;;;;;;12.62;59.78;100574.16;4912856;28;101292;-81
2023/01/02 02:56:49;;;;;;;7.90;5.20;;;;;;;12.54;59.82;100568.38;4914131;28;97836;-81
2023/01/02 02:59:14;;;;;;;8.48;5.32;;;;;;;12.50;59.63;100564.13;4930920;28;96856;-81
2023/01/02 03:01:40;;;;;;;7.68;4.97;;;;;;;12.44;59.59;100568.69;4911337;28;101669;-81
2023/01/02 03:04:17;;;;;;;7.82;5.28;;;;;;;12.38;59.43;100547.88;4934447;28;101287;-81
2023/01/02 03:07:10;;;;;;;7.30;5.38;;;;;;;12.51;60.08;100560.56;4914539;28;97336;-81
2023/01/02 03:10:02;;;;;;;9.00;5.53;;;;;;;12.50;59.93;100550.94;4929411;28;96860;-80
2023/01/02 03:12:50;;;;;;;10.10;5.75;;;;;;;12.41;60.22;100539.00;4933525;28;98555;-81
2023/01/02 03:15:29;;;;;;;9.52;6.47;;;;;;;12.50;60.02;100536.00;4881091;28;102072;-81
2023/01/02 03:18:33;;;;;;;14.15;6.65;;;;;;;12.59;59.99;100538.28;4919337;28;97900;-81
2023/01/02 03:21:12;;;;;;;10.57;6.68;;;;;;;12.79;59.17;100548.03;4913123;28;96987;-82
2023/01/02 03:23:44;;;;;;;11.68;7.18;;;;;;;12.59;59.71;100537.44;4938749;28;101101;-81
2023/01/02 03:26:11;;;;;;;12.68;6.80;;;;;;;12.76;59.57;100549.94;4919631;28;101404;-82
2023/01/02 03:28:38;;;;;;;11.73;6.70;;;;;;;12.74;59.28;100552.66;4934703;28;96745;-81
2023/01/02 03:31:07;;;;;;;14.07;7.45;;;;;;;12.75;59.38;100545.59;4911141;28;96822;-81
2023/01/02 03:33:35;;;;;;;10.50;7.10;;;;;;;12.83;58.97;100554.91;4905336;28;98440;-81
2023/01/02 03:36:08;;;;;;;12.23;6.97;;;;;;;12.81;58.82;100540.94;4911925;28;97857;-81
2023/01/02 03:38:43;;;;;;;9.57;7.03;;;;;;;12.81;59.07;100546.22;4936522;28;97169;-82
2023/01/02 03:41:16;;;;;;;12.18;7.55;;;;;;;12.81;58.69;100525.13;4930415;28;98214;-81
2023/01/02 03:43:42;;;;;;;12.48;7.05;;;;;;;12.82;58.66;100521.56;4890952;28;101508;-81
2023/01/02 03:46:20;;;;;;;12.48;6.82;;;;;;;12.85;58.87;100517.97;4946801;28;101485;-81
2023/01/02 03:49:01;;;;;;;12.65;7.18;;;;;;;12.90;58.57;100543.19;4930215;28;97365;-81
2023/01/02 03:51:26;;;;;;;12.88;7.70;;;;;;;12.65;59.45;100526.66;4940367;28;97509;-81
2023/01/02 03:53:52;;;;;;;13.38;7.05;;;;;;;12.29;60.04;100510.50;4929459;28;100897;-81
2023/01/02 03:56:36;;;;;;;13.90;7.45;;;;;;;12.28;60.58;100537.75;4929587;28;101340;-81
2023/01/02 03:59:06;;;;;;;13.05;7.72;;;;;;;12.13;60.94;100531.28;4914266;28;97075;-81
2023/01/02 04:01:55;;;;;;;12.02;7.13;;;;;;;12.10;60.82;100519.13;4916483;28;97494;-81
2023/01/02 04:04:28;;;;;;;12.15;7.70;;;;;;;12.34;60.58;100521.72;4913599;28;101191;-81
2023/01/02 04:06:58;;;;;;;10.98;7.32;;;;;;;12.32;60.60;100508.63;4946127;28;101269;-81
2023/01/02 04:09:26;;;;;;;10.43;6.77;;;;;;;12.58;59.98;100512.88;4909753;28;97560;-81
2023/01/02 04:11:57;;;;;;;11.93;6.97;;;;;;;12.33;60.20;100486.63;4926575;28;97056;-81
2023/01/02 04:14:30;;;;;;;11.35;7.22;;;;;;;12.28;61.15;100509.66;4928112;28;100980;-82
2023/01/02 04:16:58;;;;;;;10.45;6.60;;;;;;;12.35;60.59;100499.75;4930133;28;101342;-81
2023/01/02 04:19:27;;;;;;;14.02;7.10;;;;;;;12.40;60.01;100497.81;4946077;28;97063;-81
2023/01/02 04:21:56;;;;;;;12.73;7.45;;;;;;;12.51;59.80;100513.16;4902541;28;97114;-81
2023/01/02 04:24:30;;;;;;;12.13;7.68;;;;;;;12.56;60.09;100503.31;4918308;28;101781;-81
2023/01/02 04:27:26;;;;;;;14.68;7.13;;;;;;;12.65;59.50;100506.47;4946869;28;97782;-81
2023/01/02 04:29:52;;;;;;;11.77;6.15;;;;;;;12.75;59.54;100503.47;4910481;28;97777;-81
2023/01/02 04:32:34;;;;;;;8.85;5.93;;;;;;;12.78;59.83;100493.66;4913662;28;96859;-82
2023/01/02 04:35:00;;;;;;;;;;;;;;;12.39;60.19;100490.81;4935322;28;102153;-81
2023/01/02 04:37:29;;;;;;;8.80;5.82;;;;;;;12.28;60.83;100490.38;4936855;28;97791;-81
2023/01/02 04:39:58;;;;;;;10.40;6.00;;;;;;;12.20;60.92;100488.03;4907322;28;96941;-81
2023/01/02 04:42:24;;;;;;;8.10;5.47;;;;;;;12.06;61.39;100482.44;4942945;28;97090;-81
2023/01/02 04:44:50;;;;;;;13.27;5.80;;;;;;;12.11;61.58;100489.25;4926150;28;101250;-81
2023/01/02 04:47:16;;;;;;;8.55;4.95;;;;;;;12.04;61.88;100484.25;4901513;28;101570;-82
2023/01/02 04:49:41;;;;;;;7.85;5.05;;;;;;;12.11;61.38;100483.13;4926372;28;96723;-81
2023/01/02 04:52:07;;;;;;;9.63;5.93;;;;;;;12.00;61.76;100481.75;4937111;28;97643;-81
2023/01/02 04:54:32;;;;;;;10.40;5.15;;;;;;;11.94;62.34;100481.13;4914066;28;102281;-81
2023/01/02 04:56:58;;;;;;;8.68;4.75;;;;;;;12.01;62.04;100482.59;4935228;28;97396;-81
2023/01/02 04:59:23;;;;;;;8.93;4.70;;;;;;;12.01;62.12;100485.22;4915980;28;97730;-82
2023/01/02 05:01:49;;;;;;;8.27;5.78;;;;;;;12.00;61.75;100486.16;4932714;28;97155;-81
2023/01/02 05:04:14;;;;;;;8.25;5.25;;;;;;;11.96;62.23;100481.94;4931757;28;101224;-81
2023/01/02 05:06:40;;;;;;;8.43;5.07;;;;;;;11.98;62.50;100488.84;4921118;28;101223;-82
2023/01/02 05:09:05;;;;;;;6.95;4.53;;;;;;;11.99;62.13;100492.34;4918632;28;96821;-80
2023/01/02 05:11:31;;;;;;;8.57;4.65;;;;;;;11.97;62.25;100489.75;4908756;28;97014;-81
2023/01/02 05:13:56;;;;;;;8.48;4.88;;;;;;;11.97;62.60;100484.50;4935266;28;101652;-81
2023/01/02 05:16:22;;;;;;;6.13;4.55;;;;;;;11.99;62.25;100482.66;4918909;28;101441;-81
2023/01/02 05:18:47;;;;;;;9.00;4.22;;;;;;;11.99;62.39;100481.81;4904151;28;97155;-82
2023/01/02 05:24:00;;;;;;;6.45;4.05;;;;;;;12.08;61.50;100484.09;4926632;28;101735;-81
2023/01/02 05:26:26;;;;;;;9.00;3.67;;;;;;;12.20;61.53;100488.88;4924964;28;101261;-81
2023/01/02 05:28:53;;;;;;;8.35;3.63;;;;;;;12.24;61.27;100487.84;4929711;28;98115;-81
2023/01/02 05:31:18;;;;;;;5.82;3.92;;;;;;;12.23;61.13;100485.28;4909994;28;96966;-81
2023/01/02 05:33:44;;;;;;;6.10;3.35;;;;;;;12.20;61.21;100465.19;4924824;28;101106;-81
2023/01/02 05:36:09;;;;;;;5.38;3.50;;;;;;;12.34;60.90;100480.47;4908976;28;100216;-81
2023/01/02 05:38:35;;;;;;;6.15;2.90;;;;;;;12.43;60.65;100482.75;4918497;28;97321;-81
2023/01/02 05:41:06;;;;;;;5.65;2.90;;;;;;;12.23;60.08;100444.03;4944632;28;97128;-83
2023/01/02 05:43:33;;;;;;;5.82;2.85;;;;;;;12.34;61.06;100456.78;4959369;28;98508;-82
2023/01/02 05:46:08;;;;;;;5.40;3.00;;;;;;;12.53;60.39;100471.84;4909808;28;101610;-81
2023/01/02 05:48:34;;;;;;;7.28;3.50;;;;;;;12.56;60.57;100475.19;4927808;28;97253;-81
2023/01/02 05:51:03;;;;;;;4.90;2.75;;;;;;;12.62;60.21;100472.34;4939959;28;97606;-80
2023/01/02 05:53:29;;;;;;;4.05;2.67;;;;;;;12.64;59.99;100480.16;4911488;28;101957;-81
2023/01/02 05:56:05;;;;;;;4.57;2.42;;;;;;;12.65;59.62;100479.25;4909325;28;101046;-81
2023/01/02 05:58:33;;;;;;;3.83;2.67;;;;;;;12.68;60.21;100456.28;4908583;28;96951;-81
2023/01/02 06:01:12;;;;;;;4.25;2.95;;;;;;;12.79;59.87;100461.09;4927486;28;97019;-81
2023/01/02 06:03:38;;;;;;;4.55;3.28;;;;;;;12.77;59.55;100452.44;4934882;28;101885;-81
2023/01/02 06:06:09;;;;;;;3.75;2.72;;;;;;;12.81;59.87;100455.78;4907738;28;97944;-81
2023/01/02 06:08:35;;;;;;;10.13;4.47;;;;;;;12.74;59.70;100443.78;4911835;28;97175;-80
2023/01/02 06:11:01;;;;;;;2.95;2.42;;;;;;;12.69;59.52;100442.19;4912380;28;97397;-80
2023/01/02 06:13:32;;;;;;;7.18;3.20;;;;;;;12.68;59.62;100444.88;4927256;28;99146;-81
2023/01/02 06:15:59;;;;;;;6.55;2.80;;;;;;;12.75;59.71;100446.34;4905635;28;98448;-81
2023/01/02 06:18:25;;;;;;;5.40;2.72;;;;;;;12.76;59.63;100449.84;4928117;28;96882;-82
2023/01/02 06:20:51;;;;;;;3.90;2.42;;;;;;;12.75;59.39;100446.34;4915976;28;97345;-81
2023/01/02 06:23:17;;;;;;;4.70;2.78;;;;;;;12.81;59.19;100439.97;4937131;28;98567;-82
2023/01/02 06:25:42;;;;;;;4.47;2.55;;;;;;;12.72;59.24;100414.03;4936079;28;101910;-82
2023/01/02 06:28:08;;;;;;;9.13;3.05;;;;;;;12.70;59.30;100435.16;4922110;28;97090;-82
2023/01/02 06:30:33;;;;;;;4.35;2.65;;;;;;;12.86;59.24;100441.50;4909071;28;98078;-81
2023/01/02 06:32:59;;;;;;;4.32;2.63;;;;;;;12.83;59.14;100436.38;4913319;28;101464;-82
2023/01/02 06:35:25;;;;;;;5.53;2.60;;;;;;;12.82;59.45;100418.84;4925739;28;98016;-82
2023/01/02 06:37:50;;;;;;;5.78;3.13;;;;;;;12.84;58.87;100418.78;4957849;28;97071;-81
2023/01/02 06:40:16;;;;;;;8.68;3.22;;;;;;;12.90;59.21;100434.31;4916309;28;96989;-82
2023/01/02 06:42:46;;;;;;;4.63;2.92;;;;;;;12.84;58.50;100442.50;4938756;28;101091;-82
2023/01/02 06:45:12;;;;;;;7.13;2.70;;;;;;;12.87;59.05;100445.00;4925173;28;101023;-82
2023/01/02 06:47:38;;;;;;;7.38;3.28;;;;;;;12.93;58.58;100434.19;4962091;28;97207;-82
2023/01/02 06:50:03;;;;;;;5.18;2.42;;;;;;;12.96;58.41;100436.69;4924048;28;97072;-82
2023/01/02 06:52:29;;;;;;;7.80;3.78;;;;;;;12.98;58.42;100432.25;4944213;28;97444;-82
2023/01/02 06:54:54;;;;;;;4.07;2.45;;;;;;;13.03;58.30;100432.91;4938611;28;101259;-83
2023/01/02 06:57:20;;;;;;;3.58;2.50;;;;;;;13.10;58.15;100438.75;4903704;28;97345;-82
2023/01/02 06:59:46;;;;;;;4.25;2.78;;;;;;;13.06;58.16;100435.41;4918141;28;96953;-82
2023/01/02 07:02:12;;;;;;;3.88;2.58;;;;;;;12.99;58.05;100414.66;4919764;28;101335;-83
2023/01/02 07:04:38;;;;;;;3.50;2.70;;;;;;;13.12;58.49;100419.34;4952751;28;99047;-83
2023/01/02 07:07:04;;;;;;;4.47;2.35;;;;;;;13.12;58.09;100429.03;4912149;28;97245;-82
2023/01/02 07:09:30;;;;;;;8.13;2.95;;;;;;;13.10;58.08;100426.44;4932935;28;97191;-83
2023/01/02 07:11:57;;;;;;;7.25;3.40;;;;;;;12.92;58.14;100398.25;4946814;28;101429;-82
2023/01/02 07:14:23;;;;;;;7.38;3.13;;;;;;;13.12;58.26;100437.78;4920673;28;101325;-83
2023/01/02 07:16:50;;;;;;;5.43;3.58;;;;;;;13.05;57.76;100444.22;4940247;28;96846;-82
2023/01/02 07:19:15;;;;;;;9.60;3.85;;;;;;;13.01;58.29;100449.69;4937751;28;97387;-83
2023/01/02 07:21:41;;;;;;;6.78;3.38;;;;;;;12.96;58.15;100443.75;4918089;28;101681;-82
2023/01/02 07:24:11;;;;;;;7.85;4.10;;;;;;;12.98;58.33;100436.66;4931156;28;101291;-82
2023/01/02 07:26:36;;;;;;;6.15;4.18;;;;;;;12.91;58.31;100426.38;4930727;28;96905;-82
2023/01/02 07:29:02;;;;;;;8.63;3.90;;;;;;;13.04;58.37;100445.16;4932328;28;97358;-82
2023/01/02 07:31:28;;;;;;;7.03;4.60;;;;;;;12.94;58.03;100432.41;4932687;28;101267;-82
2023/01/02 07:33:54;;;;;;;11.27;5.10;;;;;;;12.92;57.86;100437.78;4948613;28;101682;-82
2023/01/02 07:36:21;;;;;;;9.35;4.65;;;;;;;12.73;58.43;100421.00;4896048;28;97001;-82
2023/01/02 07:38:54;;;;;;;10.50;4.90;;;;;;;12.59;58.18;100405.75;4965406;28;97254;-82
2023/01/02 07:41:22;;;;;;;7.85;4.88;;;;;;;12.66;58.31;100417.78;4905412;28;98146;-82
2023/01/02 07:43:48;;;;;;;8.15;4.82;;;;;;;12.65;58.38;100426.56;4928821;28;99922;-83
2023/01/02 07:46:16;;;;;;;11.57;4.68;;;;;;;12.59;58.84;100430.31;4925202;28;96908;-82
2023/01/02 07:48:41;;;;;;;13.25;5.13;;;;;;;12.62;58.97;100431.97;4961691;28;96890;-82
2023/01/02 07:51:07;;;;;;;11.68;4.25;;;;;;;12.62;58.68;100430.22;4922508;28;100704;-82
2023/01/02 07:53:33;;;;;;;8.95;5.07;;;;;;;12.59;58.52;100418.94;4923346;28;101579;-84
2023/01/02 07:56:00;;;;;;;8.65;5.10;;;;;;;12.60;58.52;100425.94;4933389;28;96774;-82
2023/01/02 07:58:26;;;;;;;9.15;4.53;;;;;;;12.64;58.77;100440.66;4916973;28;97150;-82
2023/01/02 08:00:53;;;;;;;9.50;5.15;;;;;;;12.49;58.32;100410.56;4918579;28;101412;-82
2023/01/02 08:03:20;;;;;;;9.05;4.82;;;;;;;12.80;58.03;100447.03;4928927;28;101026;-83
2023/01/02 08:05:45;;;;;;;11.15;4.80;;;;;;;12.89;58.46;100461.59;4929075;28;97208;-83
2023/01/02 08:08:11;;;;;;;5.72;4.00;;;;;;;12.96;57.90;100451.66;4914538;28;97341;-83
2023/01/02 08:10:37;;;;;;;11.77;4.82;;;;;;;12.90;57.33;100429.06;4896786;28;99269;-82
2023/01/02 08:13:03;;;;;;;8.40;4.93;;;;;;;13.12;57.64;100455.38;4933088;28;97344;-83
2023/01/02 08:15:29;;;;;;;9.32;4.30;;;;;;;13.23;57.27;100452.25;4926675;28;96862;-82
2023/01/02 08:17:56;;;;;;;9.32;4.60;;;;;;;13.22;57.08;100446.13;4920014;28;97381;-82
2023/01/02 08:20:22;;;;;;;11.73;5.18;;;;;;;13.18;57.20;100448.97;4881398;28;101475;-81
2023/01/02 08:22:47;;;;;;;9.65;4.97;;;;;;;13.17;57.35;100455.16;4941469;28;97648;-81
2023/01/02 08:25:14;;;;;;;10.90;4.85;;;;;;;12.98;56.72;100421.69;4910510;28;97741;-81
2023/01/02 08:27:40;;;;;;;9.30;4.90;;;;;;;13.07;57.54;100444.16;4912693;28;97004;-81
2023/01/02 08:30:06;;;;;;;10.10;5.40;;;;;;;13.02;57.46;100433.81;4926272;28;100946;-82
2023/01/02 08:32:38;;;;;;;16.42;5.65;;;;;;;13.08;57.71;100444.09;4929314;28;101038;-80
2023/01/02 08:35:05;;;;;;;11.48;5.38;;;;;;;13.07;57.94;100436.25;4908594;28;97113;-81
2023/01/02 08:37:30;;;;;;;11.57;5.18;;;;;;;13.13;57.58;100439.47;4926402;28;97157;-81
2023/01/02 08:39:56;;;;;;;8.55;5.25;;;;;;;13.21;57.86;100446.22;4912771;28;97503;-81
2023/01/02 08:42:21;;;;;;;9.95;5.70;;;;;;;13.10;57.60;100409.78;4924087;28;101441;-82
2023/01/02 08:44:47;;;;;;;11.82;5.60;;;;;;;13.46;57.10;100422.28;4925345;28;97307;-80
2023/01/02 08:47:13;;;;;;;17.67;5.85;;;;;;;13.63;57.07;100425.03;4928527;28;98443;-81
2023/01/02 08:49:38;;;;;;;10.60;4.82;;;;;;;13.80;56.43;100435.69;4921461;28;101178;-80
2023/01/02 08:52:04;;;;;;;12.02;5.15;;;;;;;13.84;56.65;100443.47;4958971;28;97902;-81
2023/01/02 08:54:30;;;;;;;9.20;5.30;;;;;;;13.85;56.19;100446.03;4941768;28;97196;-79
2023/01/02 08:56:55;;;;;;;8.50;4.70;;;;;;;13.68;55.99;100409.88;4943015;28;97811;-82
2023/01/02 08:59:23;;;;;;;9.30;4.85;;;;;;;13.92;56.51;100431.63;4931629;28;98468;-82
2023/01/02 09:01:49;;;;;;;9.65;4.60;;;;;;;13.97;55.99;100437.56;4928130;28;101275;-82
2023/01/02 09:04:14;;;;;;;9.43;4.10;;;;;;;14.05;56.02;100416.09;4914305;28;100202;-82
2023/01/02 09:06:41;;;;;;;7.30;3.92;;;;;;;14.07;55.85;100414.22;4922148;28;97424;-81
2023/01/02 09:09:08;;;;;;;9.20;4.40;;;;;;;14.22;55.39;100413.50;4940752;28;97671;-81
2023/01/02 09:11:38;;;;;;;6.78;4.38;;;;;;;14.36;54.99;100410.19;4926417;28;101267;-80
2023/01/02 09:14:04;;;;;;;8.43;4.07;;;;;;;14.55;55.12;100423.41;4907357;28;98019;-79
2023/01/02 09:16:31;;;;;;;9.43;4.30;;;;;;;14.56;54.37;100418.97;4892601;28;98436;-79
2023/01/02 09:18:59;;;;;;;8.93;4.13;;;;;;;14.53;54.71;100421.78;4913080;28;102617;-78
2023/01/02 09:21:24;;;;;;;6.75;4.50;;;;;;;14.53;54.83;100424.41;4937092;28;101192;-78
2023/01/02 09:23:50;;;;;;;9.38;4.40;;;;;;;14.77;54.48;100424.97;4932099;28;97399;-80
2023/01/02 09:26:16;;;;;;;7.53;4.13;;;;;;;14.97;54.32;100408.97;4944240;28;97189;-79
2023/01/02 09:28:42;;;;;;;6.18;4.13;;;;;;;15.21;53.53;100398.06;4919724;28;99777;-78
2023/01/02 09:31:09;;;;;;;10.65;4.57;;;;;;;15.22;53.03;100391.88;4920340;28;101953;-79
2023/01/02 09:33:36;;;;;;;11.02;5.20;;;;;;;15.21;52.85;100390.13;4939078;28;96820;-83
2023/01/02 09:36:07;;;;;;;8.35;4.30;;;;;;;15.39;53.01;100389.19;4946932;28;97076;-79
2023/01/02 09:38:33;;;;;;;6.83;4.27;;;;;;;15.55;52.72;100379.47;4942981;28;102137;-79
2023/01/02 09:41:00;;;;;;;7.03;4.72;;;;;;;15.86;52.09;100401.69;4925609;28;97693;-79
2023/01/02 09:43:39;;;;;;;12.88;4.72;;;;;;;16.11;51.42;100410.91;4901356;28;97293;-80
2023/01/02 09:46:06;;;;;;;6.95;4.15;;;;;;;16.09;51.70;100413.66;4936977;28;100281;-80
2023/01/02 09:48:35;;;;;;;6.15;3.80;;;;;;;16.03;51.09;100406.06;4907857;28;100827;-80
2023/01/02 09:51:02;;;;;;;11.10;3.78;;;;;;;16.03;51.72;100408.72;4917533;28;97426;-79
2023/01/02 09:53:28;;;;;;;5.97;3.85;;;;;;;15.97;51.57;100411.66;4903947;28;97971;-80
2023/01/02 09:56:07;;;;;;;6.05;3.78;;;;;;;15.82;52.20;100422.19;4917676;28;97422;-80
2023/01/02 09:59:11;;;;;;;7.45;4.43;;;;;;;15.83;52.60;100436.25;4941103;28;98129;-80
2023/01/02 10:02:03;;;;;;;6.63;3.92;;;;;;;15.91;52.72;100443.78;4923982;28;101525;-80
2023/01/02 10:04:40;;;;;;;;;;;;;;;15.89;52.79;100435.94;4916720;28;97995;-81
2023/01/02 10:07:31;;;;;;;6.95;3.72;;;;;;;15.98;52.70;100442.53;4927461;28;100321;-83
2023/01/02 10:10:16;;;;;;;10.27;5.25;;;;;;;15.97;52.74;100430.19;4925538;28;100369;-84
2023/01/02 10:12:52;;;;;;;12.05;5.40;;;;;;;15.98;52.96;100422.19;4929130;28;101352;-87
2023/01/02 10:15:23;;;;;;;6.63;3.90;;;;;;;15.87;52.71;100421.06;4901379;28;97319;-83
2023/01/02 10:17:52;;;;;;;9.60;4.15;;;;;;;15.86;52.71;100417.56;4905732;28;97529;-82
2023/01/02 10:20:26;;;;;;;6.75;3.00;;;;;;;15.93;52.81;100428.66;4926963;28;101686;-82
2023/01/02 10:22:56;;;;;;;8.43;4.13;;;;;;;15.90;52.75;100428.84;4909387;28;101467;-83
2023/01/02 10:25:26;;;;;;;7.18;3.35;;;;;;;15.98;52.58;100432.78;4906529;28;97567;-83
2023/01/02 10:28:06;;;;;;;6.18;3.08;;;;;;;15.95;52.64;100413.56;4909060;28;97162;-86
2023/01/02 10:30:36;;;;;;;8.85;3.95;;;;;;;15.89;52.51;100421.84;4954834;28;97906;-80
2023/01/02 10:33:11;;;;;;;7.72;3.42;;;;;;;15.76;52.86;100417.19;4921822;28;98149;-78
2023/01/02 10:35:42;;;;;;;9.20;3.50;;;;;;;15.78;52.67;100423.25;4924449;28;97389;-78
2023/01/02 10:38:13;;;;;;;8.13;3.38;;;;;;;15.67;53.19;100409.72;4938626;28;97024;-79
2023/01/02 10:40:41;;;;;;;9.45;3.90;;;;;;;15.73;53.28;100405.94;4945076;28;98031;-81
2023/01/02 10:43:08;;;;;;;10.20;4.45;;;;;;;15.87;53.30;100427.22;4925946;28;101549;-78
2023/01/02 10:45:34;;;;;;;8.73;4.63;;;;;;;15.86;53.29;100422.00;4956882;28;97599;-80
2023/01/02 10:47:59;;;;;;;8.50;5.30;;;;;;;15.87;53.10;100423.72;4926600;28;97390;-79
2023/01/02 10:50:28;;;;;;;11.10;5.38;;;;;;;15.93;52.82;100432.16;4922998;28;102137;-80
2023/01/02 10:53:20;;;;;;;12.48;4.38;;;;;;;15.83;52.52;100405.34;4918872;28;101519;-79
2023/01/02 10:55:46;;;;;;;8.43;3.63;;;;;;;15.73;52.56;100400.63;4903134;28;97345;-78
2023/01/02 10:58:25;;;;;;;7.90;3.95;;;;;;;15.72;53.01;100428.88;4924515;28;96900;-81
2023/01/02 11:01:21;;;;;;;6.50;3.70;;;;;;;15.76;53.30;100456.88;4902560;28;97679;-79
2023/01/02 11:03:53;;;;;;;5.72;3.90;;;;;;;15.75;53.19;100430.53;4920034;28;101162;-78
2023/01/02 11:06:21;;;;;;;;;;;;;;;15.70;53.30;100438.69;4949219;28;96780;-78
2023/01/02 11:09:06;;;;;;;9.85;3.88;;;;;;;15.55;53.10;100421.81;4931538;28;96840;-78
2023/01/02 11:11:32;;;;;;;9.43;3.97;;;;;;;15.60;53.35;100405.72;4915457;28;101688;-80
2023/01/02 11:14:09;;;;;;;7.90;3.40;;;;;;;15.65;53.21;100408.97;4939348;28;97682;-81
2023/01/02 11:16:40;;;;;;;9.05;4.00;;;;;;;15.61;52.44;100402.97;4908971;28;98096;-77
2023/01/02 11:19:17;;;;;;;10.68;4.55;;;;;;;15.72;52.58;100412.16;4942539;28;98746;-84
2023/01/02 11:21:42;;;;;;;7.57;3.20;;;;;;;15.64;52.10;100391.38;4947572;28;98588;-87
2023/01/02 11:24:15;;;;;;;6.13;3.80;;;;;;;15.65;52.19;100377.22;4910089;28;101511;-84
2023/01/02 11:26:42;;;;;;;5.15;3.42;;;;;;;15.47;53.11;100372.91;4913430;28;96857;-84
2023/01/02 11:29:23;;;;;;;10.63;3.05;;;;;;;15.31;52.86;100383.44;4948085;28;97556;-84
2023/01/02 11:31:51;;;;;;;9.00;3.90;;;;;;;15.33;53.00;100378.91;4928734;28;97580;-85
2023/01/02 11:34:20;;;;;;;9.45;4.05;;;;;;;15.34;53.12;100373.56;4910587;28;98044;-85